createdAt,value
2019-02-02T00:02:03.501Z,19.43
2019-02-02T00:04:32.905Z,20.57
2019-02-02T00:07:02.217Z,18.70
2019-02-02T00:09:31.394Z,17.47
2019-02-02T00:12:00.414Z,16.83
2019-02-02T00:14:29.875Z,17.60
2019-02-02T00:16:58.991Z,16.83
2019-02-02T00:19:28.192Z,16.27
2019-02-02T00:21:57.519Z,19.07
2019-02-02T00:24:26.511Z,19.97
2019-02-02T00:26:55.827Z,17.50
2019-02-02T00:29:25.172Z,19.67
2019-02-02T00:31:54.643Z,20.47
2019-02-02T00:34:23.645Z,18.73
2019-02-02T00:36:52.809Z,17.47
2019-02-02T00:39:22.057Z,16.87
2019-02-02T00:41:50.978Z,15.27
2019-02-02T00:44:21.181Z,12.63
2019-02-02T00:46:52.180Z,13.57
2019-02-02T00:49:21.275Z,12.23
2019-02-02T00:51:50.610Z,11.57
2019-02-02T00:54:19.689Z,9.50
2019-02-02T00:56:51.165Z,9.27
2019-02-02T00:59:20.484Z,11.50
2019-02-02T01:01:50.077Z,9.93
2019-02-02T01:04:19.513Z,11.63
2019-02-02T01:06:48.679Z,10.03
2019-02-02T01:09:24.622Z,10.00
2019-02-02T01:11:53.729Z,9.93
2019-02-02T01:14:23.013Z,10.27
2019-02-02T01:16:52.156Z,10.73
2019-02-02T01:19:21.485Z,9.97
2019-02-02T01:21:50.918Z,9.47
2019-02-02T01:24:20.016Z,10.40
2019-02-02T01:26:49.362Z,11.90
2019-02-02T01:29:18.564Z,9.47
2019-02-02T01:31:48.461Z,10.17
2019-02-02T01:34:17.452Z,9.17
2019-02-02T01:36:46.501Z,9.33
2019-02-02T01:39:15.845Z,8.50
2019-02-02T01:41:44.942Z,8.13
2019-02-02T01:44:14.241Z,8.00
2019-02-02T01:46:44.631Z,7.80
2019-02-02T01:49:15.406Z,8.13
2019-02-02T01:51:44.935Z,8.70
2019-02-02T01:54:14.417Z,7.63
2019-02-02T01:56:43.690Z,6.77
2019-02-02T01:59:14.343Z,6.90
2019-02-02T02:01:43.458Z,9.57
2019-02-02T02:04:12.872Z,8.80
2019-02-02T02:06:42.316Z,10.07
2019-02-02T02:09:12.577Z,7.50
2019-02-02T02:11:42.004Z,8.63
2019-02-02T02:14:11.293Z,9.03
2019-02-02T02:16:40.703Z,9.47
2019-02-02T02:19:09.876Z,8.93
2019-02-02T02:21:39.033Z,11.60
2019-02-02T02:24:08.409Z,9.43
2019-02-02T02:26:37.585Z,9.17
2019-02-02T02:29:07.023Z,8.83
2019-02-02T02:31:36.667Z,8.33
2019-02-02T02:34:05.869Z,8.63
2019-02-02T02:36:34.891Z,9.13
2019-02-02T02:39:04.974Z,7.93
2019-02-02T02:41:34.452Z,9.07
2019-02-02T02:44:03.917Z,8.33
2019-02-02T02:46:35.625Z,9.80
2019-02-02T02:49:04.991Z,9.83
2019-02-02T02:51:34.116Z,8.70
2019-02-02T02:54:06.109Z,10.67
2019-02-02T02:56:35.222Z,9.23
2019-02-02T02:59:05.227Z,11.63
2019-02-02T03:01:34.518Z,12.10
2019-02-02T03:04:04.022Z,9.73
2019-02-02T03:06:33.320Z,9.77
2019-02-02T03:09:02.388Z,10.60
2019-02-02T03:11:31.846Z,9.87
2019-02-02T03:14:00.768Z,10.03
2019-02-02T03:16:32.337Z,8.30
2019-02-02T03:19:01.609Z,8.27
2019-02-02T03:21:30.901Z,10.17
2019-02-02T03:24:00.431Z,8.63
2019-02-02T03:26:29.850Z,10.30
2019-02-02T03:28:59.377Z,9.30
2019-02-02T03:31:28.539Z,8.53
2019-02-02T03:33:57.874Z,8.83
2019-02-02T03:36:29.438Z,9.87
2019-02-02T03:38:58.429Z,7.97
2019-02-02T03:41:27.862Z,8.03
2019-02-02T03:43:57.103Z,15.63
2019-02-02T03:46:27.665Z,10.47
2019-02-02T03:48:58.920Z,19.57
2019-02-02T03:51:27.967Z,15.07
2019-02-02T03:54:08.210Z,7.07
2019-02-02T03:56:28.565Z,8.17
2019-02-02T03:59:05.984Z,5.37
2019-02-02T04:01:30.326Z,6.67
2019-02-02T04:03:59.899Z,6.10
2019-02-02T04:06:30.527Z,8.17
2019-02-02T04:09:01.281Z,9.80
2019-02-02T04:11:30.985Z,5.30
2019-02-02T04:14:00.361Z,3.37
2019-02-02T04:16:30.030Z,4.87
2019-02-02T04:19:00.628Z,4.60
2019-02-02T04:21:29.912Z,5.83
2019-02-02T04:23:59.193Z,5.33
2019-02-02T04:26:30.379Z,6.37
2019-02-02T04:28:59.535Z,9.50
2019-02-02T04:31:28.794Z,6.13
2019-02-02T04:33:58.121Z,6.67
2019-02-02T04:36:27.742Z,8.33
2019-02-02T04:38:57.053Z,8.53
2019-02-02T04:41:26.378Z,8.47
2019-02-02T04:43:55.585Z,7.83
2019-02-02T04:46:24.842Z,9.10
2019-02-02T04:48:54.052Z,10.03
2019-02-02T04:51:23.162Z,19.60
2019-02-02T04:53:52.159Z,15.20
2019-02-02T04:56:21.496Z,16.57
2019-02-02T04:58:50.865Z,14.23
2019-02-02T05:01:20.282Z,10.57
2019-02-02T05:03:49.392Z,10.67
2019-02-02T05:06:18.677Z,9.83
2019-02-02T05:08:50.135Z,8.63
2019-02-02T05:11:19.242Z,9.33
2019-02-02T05:13:48.740Z,7.73
2019-02-02T05:16:19.778Z,8.90
2019-02-02T05:18:50.707Z,9.57
2019-02-02T05:21:19.927Z,9.37
2019-02-02T05:23:49.658Z,8.90
2019-02-02T05:26:18.893Z,9.07
2019-02-02T05:28:48.455Z,8.97
2019-02-02T05:31:18.002Z,8.87
2019-02-02T05:33:47.225Z,9.13
2019-02-02T05:36:18.270Z,7.47
2019-02-02T05:38:47.510Z,8.00
2019-02-02T05:41:16.615Z,9.33
2019-02-02T05:43:47.505Z,11.77
2019-02-02T05:46:16.556Z,8.67
2019-02-02T05:48:45.715Z,10.67
2019-02-02T05:51:16.266Z,8.47
2019-02-02T05:53:47.655Z,8.60
2019-02-02T05:56:16.649Z,7.27
2019-02-02T05:58:45.892Z,5.13
2019-02-02T06:01:18.648Z,4.53
2019-02-02T06:03:47.750Z,4.63
2019-02-02T06:06:16.698Z,4.37
2019-02-02T06:08:45.942Z,6.27
2019-02-02T06:11:15.257Z,6.70
2019-02-02T06:13:45.120Z,7.23
2019-02-02T06:16:14.351Z,8.47
2019-02-02T06:18:46.028Z,6.87
2019-02-02T06:21:16.598Z,6.20
2019-02-02T06:23:46.508Z,6.33
2019-02-02T06:26:16.003Z,6.30
2019-02-02T06:28:45.009Z,9.40
2019-02-02T06:31:14.350Z,19.23
2019-02-02T06:33:43.627Z,19.03
2019-02-02T06:36:12.785Z,13.10
2019-02-02T06:38:41.629Z,11.37
2019-02-02T06:41:10.623Z,8.90
2019-02-02T06:43:39.615Z,10.97
2019-02-02T06:46:08.706Z,10.83
2019-02-02T06:48:37.881Z,9.27
2019-02-02T06:51:06.869Z,9.10
2019-02-02T06:53:35.983Z,7.13
2019-02-02T06:56:05.334Z,12.97
2019-02-02T06:58:34.405Z,10.70
2019-02-02T07:01:03.540Z,23.97
2019-02-02T07:03:32.832Z,18.83
2019-02-02T07:06:03.241Z,16.53
2019-02-02T07:08:32.437Z,11.60
2019-02-02T07:11:01.531Z,8.17
2019-02-02T07:13:30.719Z,9.10
2019-02-02T07:15:59.793Z,5.93
2019-02-02T07:18:28.766Z,6.37
2019-02-02T07:20:57.735Z,5.80
2019-02-02T07:23:26.915Z,3.07
2019-02-02T07:25:56.144Z,41.83
2019-02-02T07:28:24.983Z,20.33
2019-02-02T07:30:54.333Z,10.50
2019-02-02T07:33:23.438Z,12.13
2019-02-02T07:35:54.130Z,13.67
2019-02-02T07:38:23.440Z,13.40
2019-02-02T07:40:52.734Z,24.23
2019-02-02T07:43:21.895Z,21.13
2019-02-02T07:45:50.984Z,47.50
2019-02-02T07:48:20.083Z,15.53
2019-02-02T07:50:50.627Z,18.23
2019-02-02T07:53:19.713Z,25.73
2019-02-02T07:55:48.861Z,16.00
2019-02-02T07:58:17.945Z,13.47
2019-02-02T08:00:47.494Z,9.87
2019-02-02T08:03:16.634Z,10.70
2019-02-02T08:05:46.177Z,11.37
2019-02-02T08:08:17.162Z,8.43
2019-02-02T08:10:46.751Z,10.13
2019-02-02T08:13:15.789Z,10.20
2019-02-02T08:15:44.921Z,9.23
2019-02-02T08:18:14.497Z,18.40
2019-02-02T08:20:43.661Z,10.83
2019-02-02T08:23:12.763Z,9.93
2019-02-02T08:25:42.064Z,20.30
2019-02-02T08:28:11.276Z,10.83
2019-02-02T08:30:51.651Z,11.83
2019-02-02T08:33:11.361Z,11.23
2019-02-02T08:35:40.367Z,15.07
2019-02-02T08:38:09.481Z,18.50
2019-02-02T08:40:38.715Z,13.50
2019-02-02T08:43:07.983Z,13.33
2019-02-02T08:45:37.111Z,20.57
2019-02-02T08:48:06.378Z,66.03
2019-02-02T08:50:37.826Z,20.10
2019-02-02T08:53:07.303Z,14.87
2019-02-02T08:55:36.572Z,17.40
2019-02-02T08:58:06.726Z,60.10
2019-02-02T09:00:36.621Z,25.30
2019-02-02T09:03:06.448Z,16.40
2019-02-02T09:05:35.735Z,36.43
2019-02-02T09:08:05.415Z,20.20
2019-02-02T09:10:34.470Z,20.53
2019-02-02T09:13:04.029Z,13.37
2019-02-02T09:15:33.595Z,11.30
2019-02-02T09:18:02.805Z,9.23
2019-02-02T09:20:31.945Z,9.20
2019-02-02T09:23:06.241Z,8.33
2019-02-02T09:25:32.675Z,8.10
2019-02-02T09:28:01.773Z,8.03
2019-02-02T09:30:35.891Z,12.20
2019-02-02T09:33:05.545Z,11.50
2019-02-02T09:35:34.931Z,10.67
2019-02-02T09:38:04.851Z,10.80
2019-02-02T09:40:34.082Z,11.80
2019-02-02T09:43:03.721Z,10.10
2019-02-02T09:45:32.826Z,9.73
2019-02-02T09:48:01.987Z,8.93
2019-02-02T09:50:31.241Z,6.83
2019-02-02T09:53:00.477Z,7.27
2019-02-02T09:55:29.755Z,6.07
2019-02-02T09:58:01.755Z,8.50
2019-02-02T10:00:32.119Z,8.07
2019-02-02T10:03:01.411Z,6.73
2019-02-02T10:05:31.539Z,6.07
2019-02-02T10:08:00.515Z,6.53
2019-02-02T10:10:31.338Z,5.07
2019-02-02T10:13:00.834Z,6.23
2019-02-02T10:15:29.977Z,6.93
2019-02-02T10:17:59.112Z,5.60
2019-02-02T10:20:29.238Z,4.33
2019-02-02T10:22:59.054Z,5.17
2019-02-02T10:25:29.564Z,4.93
2019-02-02T10:27:58.605Z,4.43
2019-02-02T10:30:39.169Z,23.83
2019-02-02T10:33:08.702Z,5.60
2019-02-02T10:35:37.690Z,4.27
2019-02-02T10:38:07.353Z,18.60
2019-02-02T10:40:36.339Z,7.83
2019-02-02T10:43:05.631Z,6.93
2019-02-02T10:45:34.845Z,50.07
2019-02-02T10:48:04.162Z,15.87
2019-02-02T10:50:33.767Z,20.03
2019-02-02T10:53:03.447Z,6.03
2019-02-02T10:55:32.731Z,4.47
2019-02-02T10:58:02.266Z,7.97
2019-02-02T11:00:33.764Z,5.27
2019-02-02T11:03:02.720Z,5.53
2019-02-02T11:05:32.145Z,4.27
2019-02-02T11:08:01.448Z,2.80
2019-02-02T11:10:31.576Z,3.90
2019-02-02T11:13:00.917Z,2.63
2019-02-02T11:15:30.185Z,2.40
2019-02-02T11:17:59.588Z,4.20
2019-02-02T11:20:33.020Z,3.63
2019-02-02T11:23:02.222Z,3.23
2019-02-02T11:25:32.086Z,2.17
2019-02-02T11:28:02.062Z,2.27
2019-02-02T11:30:31.436Z,3.17
2019-02-02T11:33:00.965Z,2.60
2019-02-02T11:35:30.670Z,3.03
2019-02-02T11:37:59.814Z,2.47
2019-02-02T11:40:30.774Z,4.13
2019-02-02T11:43:00.170Z,5.00
2019-02-02T11:45:29.248Z,3.47
2019-02-02T11:47:58.425Z,2.63
2019-02-02T11:50:27.829Z,3.17
2019-02-02T11:52:57.114Z,2.17
2019-02-02T11:55:26.458Z,3.10
2019-02-02T11:57:55.663Z,1.83
2019-02-02T12:00:32.979Z,1.80
2019-02-02T12:03:04.345Z,6.03
2019-02-02T12:05:33.620Z,2.17
2019-02-02T12:08:03.005Z,4.43
2019-02-02T12:10:32.769Z,2.17
2019-02-02T12:13:02.616Z,2.30
2019-02-02T12:15:32.289Z,2.07
2019-02-02T12:18:01.353Z,3.20
2019-02-02T12:20:33.165Z,2.63
2019-02-02T12:23:02.114Z,2.90
2019-02-02T12:25:31.225Z,1.80
2019-02-02T12:28:00.635Z,2.80
2019-02-02T12:30:31.927Z,3.83
2019-02-02T12:33:03.613Z,1.40
2019-02-02T12:35:33.009Z,3.77
2019-02-02T12:38:02.977Z,5.70
2019-02-02T12:40:33.093Z,6.03
2019-02-02T12:43:02.615Z,7.00
2019-02-02T12:45:41.179Z,5.83
2019-02-02T12:48:10.864Z,6.77
2019-02-02T12:50:40.084Z,6.63
2019-02-02T12:53:09.863Z,5.90
2019-02-02T12:55:39.315Z,10.83
2019-02-02T12:58:08.325Z,5.83
2019-02-02T13:00:37.533Z,6.57
2019-02-02T13:03:07.800Z,5.70
2019-02-02T13:05:40.036Z,6.20
2019-02-02T13:08:09.095Z,5.83
2019-02-02T13:10:38.342Z,11.87
2019-02-02T13:13:07.576Z,6.43
2019-02-02T13:15:36.693Z,5.90
2019-02-02T13:18:05.960Z,5.80
2019-02-02T13:20:35.406Z,6.30
2019-02-02T13:23:04.691Z,7.57
2019-02-02T13:25:34.182Z,7.53
2019-02-02T13:28:04.225Z,7.87
2019-02-02T13:30:35.016Z,9.87
2019-02-02T13:33:04.921Z,5.60
2019-02-02T13:35:36.301Z,6.73
2019-02-02T13:38:06.521Z,8.27
2019-02-02T13:40:36.342Z,8.33
2019-02-02T13:43:05.649Z,5.93
2019-02-02T13:45:34.852Z,5.30
2019-02-02T13:48:04.976Z,7.50
2019-02-02T13:50:34.422Z,7.40
2019-02-02T13:53:04.726Z,6.53
2019-02-02T13:55:33.921Z,5.10
2019-02-02T13:58:03.713Z,5.97
2019-02-02T14:00:34.741Z,6.93
2019-02-02T14:03:04.870Z,5.87
2019-02-02T14:05:35.630Z,6.30
2019-02-02T14:08:05.355Z,7.20
2019-02-02T14:10:35.549Z,6.03
2019-02-02T14:13:05.553Z,7.83
2019-02-02T14:15:35.555Z,7.17
2019-02-02T14:18:04.886Z,8.77
2019-02-02T14:20:34.636Z,7.97
2019-02-02T14:23:05.330Z,8.93
2019-02-02T14:25:34.464Z,7.30
2019-02-02T14:28:03.930Z,9.93
2019-02-02T14:30:33.249Z,8.50
2019-02-02T14:33:13.292Z,10.13
2019-02-02T14:35:33.258Z,9.40
2019-02-02T14:38:02.314Z,6.47
2019-02-02T14:40:31.519Z,6.60
2019-02-02T14:43:00.614Z,7.13
2019-02-02T14:45:31.886Z,7.63
2019-02-02T14:48:01.127Z,6.70
2019-02-02T14:50:32.073Z,7.10
2019-02-02T14:53:01.669Z,8.37
2019-02-02T14:55:31.024Z,10.13
2019-02-02T14:58:00.327Z,6.90
2019-02-02T15:00:31.844Z,6.43
2019-02-02T15:03:03.419Z,6.27
2019-02-02T15:05:42.681Z,5.00
2019-02-02T15:08:05.072Z,6.43
2019-02-02T15:10:34.175Z,6.60
2019-02-02T15:13:03.211Z,5.73
2019-02-02T15:15:32.366Z,9.03
2019-02-02T15:18:02.498Z,9.03
2019-02-02T15:20:34.380Z,8.10
2019-02-02T15:23:03.692Z,8.00
2019-02-02T15:25:32.903Z,9.70
2019-02-02T15:28:02.234Z,9.03
2019-02-02T15:30:31.936Z,8.90
2019-02-02T15:33:01.423Z,8.53
2019-02-02T15:35:31.378Z,6.10
2019-02-02T15:38:01.694Z,6.27
2019-02-02T15:40:32.065Z,7.00
2019-02-02T15:43:01.689Z,6.23
2019-02-02T15:45:32.167Z,7.77
2019-02-02T15:48:02.174Z,7.80
2019-02-02T15:50:31.339Z,8.73
2019-02-02T15:53:00.920Z,7.87
2019-02-02T15:55:30.523Z,6.57
2019-02-02T15:57:59.723Z,8.07
2019-02-02T16:00:31.098Z,9.03
2019-02-02T16:03:00.334Z,8.07
2019-02-02T16:05:30.605Z,7.43
2019-02-02T16:08:01.351Z,7.00
2019-02-02T16:10:31.363Z,7.57
2019-02-02T16:13:01.476Z,7.57
2019-02-02T16:15:34.130Z,10.03
2019-02-02T16:18:02.209Z,7.83
2019-02-02T16:20:36.531Z,8.23
2019-02-02T16:23:06.346Z,7.23
2019-02-02T16:25:35.859Z,10.87
2019-02-02T16:28:05.723Z,26.70
2019-02-02T16:30:35.666Z,14.07
2019-02-02T16:33:05.542Z,9.93
2019-02-02T16:35:35.873Z,8.07
2019-02-02T16:38:05.485Z,10.37
2019-02-02T16:40:35.446Z,11.10
2019-02-02T16:43:04.626Z,12.40
2019-02-02T16:45:34.642Z,11.67
2019-02-02T16:48:05.075Z,10.53
2019-02-02T16:50:35.096Z,7.13
2019-02-02T16:53:05.501Z,6.63
2019-02-02T16:55:35.758Z,5.97
2019-02-02T16:58:06.231Z,6.30
2019-02-02T17:00:36.628Z,7.50
2019-02-02T17:03:06.489Z,6.90
2019-02-02T17:05:36.093Z,10.07
2019-02-02T17:08:06.160Z,7.93
2019-02-02T17:10:37.293Z,10.27
2019-02-02T17:13:07.962Z,11.87
2019-02-02T17:15:37.426Z,10.67
2019-02-02T17:18:07.388Z,11.20
2019-02-02T17:20:42.306Z,12.97
2019-02-02T17:23:12.065Z,11.67
2019-02-02T17:25:42.215Z,11.47
2019-02-02T17:28:11.963Z,12.17
2019-02-02T17:30:42.148Z,11.83
2019-02-02T17:33:13.840Z,12.07
2019-02-02T17:35:44.313Z,15.60
2019-02-02T17:38:13.720Z,16.83
2019-02-02T17:40:43.053Z,16.97
2019-02-02T17:43:13.125Z,13.83
2019-02-02T17:45:45.107Z,17.70
2019-02-02T17:48:15.946Z,20.97
2019-02-02T17:50:45.788Z,18.27
2019-02-02T17:53:18.173Z,22.77
2019-02-02T17:55:48.572Z,19.60
2019-02-02T17:58:18.158Z,21.73
2019-02-02T18:00:54.424Z,19.77
2019-02-02T18:03:24.329Z,21.57
2019-02-02T18:05:54.981Z,21.20
2019-02-02T18:08:28.723Z,20.13
2019-02-02T18:10:59.964Z,23.20
2019-02-02T18:13:29.967Z,19.63
2019-02-02T18:15:59.817Z,20.60
2019-02-02T18:18:29.391Z,20.77
2019-02-02T18:21:00.439Z,24.10
2019-02-02T18:23:30.804Z,21.93
2019-02-02T18:26:01.760Z,23.00
2019-02-02T18:28:32.831Z,23.07
2019-02-02T18:31:04.172Z,24.97
2019-02-02T18:33:34.923Z,21.23
2019-02-02T18:36:06.045Z,20.73
2019-02-02T18:38:38.041Z,21.50
2019-02-02T18:41:09.690Z,17.17
2019-02-02T18:43:40.742Z,16.23
2019-02-02T18:46:11.760Z,15.60
2019-02-02T18:48:41.656Z,18.23
2019-02-02T18:51:11.750Z,16.97
2019-02-02T18:53:42.193Z,15.93
2019-02-02T18:56:14.258Z,19.10
2019-02-02T18:58:45.427Z,18.27
2019-02-02T19:01:19.967Z,15.53
2019-02-02T19:03:51.738Z,19.97
2019-02-02T19:06:23.259Z,16.27
2019-02-02T19:08:54.324Z,14.87
2019-02-02T19:11:26.733Z,18.93
2019-02-02T19:13:58.610Z,19.50
2019-02-02T19:16:29.838Z,15.33
2019-02-02T19:19:01.277Z,19.73
2019-02-02T19:21:33.029Z,16.53
2019-02-02T19:24:04.674Z,17.20
2019-02-02T19:26:36.212Z,14.63
2019-02-02T19:29:07.909Z,21.17
2019-02-02T19:31:40.156Z,20.73
2019-02-02T19:34:11.968Z,18.60
2019-02-02T19:36:43.801Z,19.57
2019-02-02T19:39:16.384Z,18.27
2019-02-02T19:41:48.505Z,17.43
2019-02-02T19:44:21.585Z,18.77
2019-02-02T19:46:53.921Z,16.80
2019-02-02T19:49:27.177Z,16.20
2019-02-02T19:51:59.969Z,17.30
2019-02-02T19:54:33.141Z,16.73
2019-02-02T19:57:05.810Z,13.50
2019-02-02T19:59:38.306Z,15.10
2019-02-02T20:02:11.880Z,14.80
2019-02-02T20:04:44.550Z,15.80
2019-02-02T20:07:16.542Z,14.30
2019-02-02T20:09:50.118Z,14.30
2019-02-02T20:12:22.150Z,12.90
2019-02-02T20:14:54.821Z,14.03
2019-02-02T20:17:26.931Z,22.83
2019-02-02T20:19:59.846Z,36.73
2019-02-02T20:22:32.783Z,31.43
2019-02-02T20:25:05.242Z,26.50
2019-02-02T20:27:37.465Z,17.57
2019-02-02T20:30:11.726Z,22.57
2019-02-02T20:32:44.010Z,22.07
2019-02-02T20:35:16.440Z,17.40
2019-02-02T20:37:48.230Z,18.27
2019-02-02T20:40:22.873Z,19.00
2019-02-02T20:42:56.433Z,17.83
2019-02-02T20:45:34.346Z,15.80
2019-02-02T20:48:07.867Z,15.33
2019-02-02T20:50:40.313Z,18.03
2019-02-02T20:53:12.282Z,17.33
2019-02-02T20:55:45.898Z,15.57
2019-02-02T20:58:18.011Z,16.67
2019-02-02T21:00:49.873Z,18.27
2019-02-02T21:03:22.942Z,19.37
2019-02-02T21:05:55.497Z,18.40
2019-02-02T21:08:30.170Z,24.20
2019-02-02T21:11:02.619Z,21.07
2019-02-02T21:13:34.772Z,19.03
2019-02-02T21:16:07.546Z,20.07
2019-02-02T21:18:39.333Z,20.83
2019-02-02T21:21:11.315Z,21.67
2019-02-02T21:23:42.454Z,21.23
2019-02-02T21:26:13.542Z,18.87
2019-02-02T21:28:50.598Z,23.23
2019-02-02T21:31:17.089Z,19.60
2019-02-02T21:33:48.877Z,21.77
2019-02-02T21:36:20.688Z,23.10
2019-02-02T21:38:51.897Z,20.47
2019-02-02T21:41:23.483Z,22.70
2019-02-02T21:43:54.597Z,21.07
2019-02-02T21:46:25.891Z,24.73
2019-02-02T21:48:56.726Z,24.17
2019-02-02T21:51:27.894Z,25.67
2019-02-02T21:54:00.073Z,22.77
2019-02-02T21:56:30.477Z,21.83
2019-02-02T21:59:01.123Z,23.13
2019-02-02T22:01:32.321Z,24.40
2019-02-02T22:04:01.933Z,24.60
2019-02-02T22:06:32.037Z,21.57
2019-02-02T22:09:01.566Z,25.50
2019-02-02T22:11:30.962Z,32.83
2019-02-02T22:14:01.197Z,31.90
2019-02-02T22:16:30.446Z,29.63
2019-02-02T22:19:00.117Z,25.40
2019-02-02T22:21:29.311Z,28.67
2019-02-02T22:23:58.892Z,25.20
2019-02-02T22:26:28.052Z,20.90
2019-02-02T22:28:58.058Z,21.37
2019-02-02T22:31:27.304Z,17.70
2019-02-02T22:33:56.617Z,18.33
2019-02-02T22:36:28.255Z,20.73
2019-02-02T22:38:57.411Z,23.13
2019-02-02T22:41:26.401Z,21.83
2019-02-02T22:43:55.708Z,20.70
2019-02-02T22:46:24.735Z,26.57
2019-02-02T22:48:54.031Z,22.40
2019-02-02T22:51:23.319Z,23.70
2019-02-02T22:53:52.948Z,24.67
2019-02-02T22:56:21.986Z,22.33
2019-02-02T22:58:50.923Z,37.43
2019-02-02T23:01:33.496Z,37.27
2019-02-02T23:04:44.678Z,74.00
2019-02-02T23:07:48.869Z,36.13
2019-02-02T23:10:42.077Z,48.40
2019-02-02T23:13:42.732Z,37.50
2019-02-02T23:16:26.833Z,52.10
2019-02-02T23:18:56.473Z,39.37
2019-02-02T23:21:26.097Z,29.17
2019-02-02T23:23:55.382Z,27.10
2019-02-02T23:26:25.838Z,27.50
2019-02-02T23:28:55.236Z,30.40
2019-02-02T23:31:24.789Z,28.63
2019-02-02T23:33:53.817Z,31.37
2019-02-02T23:36:22.833Z,25.83
2019-02-02T23:38:52.213Z,28.97
2019-02-02T23:41:21.277Z,42.80
2019-02-02T23:43:50.130Z,27.33
2019-02-02T23:46:19.429Z,28.13
2019-02-02T23:48:48.392Z,30.70
2019-02-02T23:51:17.416Z,30.60
2019-02-02T23:53:46.434Z,29.47
2019-02-02T23:56:15.550Z,24.70
2019-02-02T23:58:45.109Z,32.77
